createdAt,value
2018-08-04T00:01:55.283Z,5.77
2018-08-04T00:04:29.485Z,6.03
2018-08-04T00:07:00.884Z,5.97
2018-08-04T00:09:35.514Z,5.30
2018-08-04T00:12:08.172Z,6.00
2018-08-04T00:14:40.895Z,5.50
2018-08-04T00:17:11.592Z,5.43
2018-08-04T00:19:47.922Z,5.57
2018-08-04T00:22:22.242Z,5.73
2018-08-04T00:24:54.366Z,5.20
2018-08-04T00:27:29.159Z,6.00
2018-08-04T00:30:10.540Z,5.80
2018-08-04T00:32:42.657Z,5.23
2018-08-04T00:36:01.715Z,4.90
2018-08-04T00:39:17.481Z,5.23
2018-08-04T00:42:15.824Z,4.93
2018-08-04T00:45:07.490Z,5.17
2018-08-04T00:50:32.119Z,5.63
2018-08-04T00:53:11.101Z,5.33
2018-08-04T00:55:45.828Z,5.03
2018-08-04T00:58:15.995Z,4.90
2018-08-04T01:00:46.775Z,5.20
2018-08-04T01:03:17.195Z,5.07
2018-08-04T01:05:47.165Z,5.77
2018-08-04T01:08:20.955Z,5.40
2018-08-04T01:10:59.196Z,5.30
2018-08-04T01:13:31.014Z,4.87
2018-08-04T01:16:01.678Z,5.50
2018-08-04T01:18:32.966Z,5.43
2018-08-04T01:21:02.946Z,5.27
2018-08-04T01:23:33.779Z,5.63
2018-08-04T01:26:03.779Z,5.00
2018-08-04T01:28:34.560Z,4.90
2018-08-04T01:31:05.836Z,5.17
2018-08-04T01:33:38.418Z,5.30
2018-08-04T01:36:10.067Z,5.60
2018-08-04T01:38:40.435Z,5.30
2018-08-04T01:41:11.119Z,4.77
2018-08-04T01:43:41.241Z,5.70
2018-08-04T01:46:11.367Z,5.77
2018-08-04T01:48:41.455Z,5.30
2018-08-04T01:51:12.245Z,5.13
2018-08-04T01:53:43.128Z,5.30
2018-08-04T01:56:13.181Z,5.53
2018-08-04T01:58:46.963Z,5.90
2018-08-04T02:01:16.864Z,5.53
2018-08-04T02:03:57.520Z,5.23
2018-08-04T02:06:29.141Z,5.60
2018-08-04T02:09:25.193Z,5.50
2018-08-04T02:11:54.719Z,5.40
2018-08-04T02:14:24.712Z,5.17
2018-08-04T02:16:54.731Z,5.43
2018-08-04T02:19:25.197Z,5.30
2018-08-04T02:21:55.573Z,5.53
2018-08-04T02:24:26.151Z,5.30
2018-08-04T02:26:58.935Z,5.60
2018-08-04T02:29:38.458Z,5.70
2018-08-04T02:32:11.525Z,5.90
2018-08-04T02:34:46.444Z,5.33
2018-08-04T02:37:23.718Z,5.40
2018-08-04T02:39:56.531Z,5.93
2018-08-04T02:45:12.290Z,5.47
2018-08-04T02:47:42.643Z,5.70
2018-08-04T02:50:13.537Z,5.30
2018-08-04T02:52:43.781Z,5.07
2018-08-04T02:55:17.669Z,5.53
2018-08-04T02:57:48.457Z,5.27
2018-08-04T03:00:19.507Z,5.70
2018-08-04T03:02:51.400Z,4.90
2018-08-04T03:05:25.345Z,5.20
2018-08-04T03:07:56.154Z,5.30
2018-08-04T03:10:26.184Z,5.60
2018-08-04T03:13:03.181Z,5.90
2018-08-04T03:15:36.096Z,5.57
2018-08-04T03:18:07.091Z,5.03
2018-08-04T03:20:38.994Z,4.70
2018-08-04T03:23:09.972Z,5.20
2018-08-04T03:25:41.964Z,5.07
2018-08-04T03:28:13.816Z,5.53
2018-08-04T03:30:46.855Z,5.47
2018-08-04T03:33:21.833Z,5.47
2018-08-04T03:35:56.032Z,5.27
2018-08-04T03:38:26.718Z,5.73
2018-08-04T03:40:57.771Z,5.30
2018-08-04T03:43:27.869Z,5.60
2018-08-04T03:45:58.139Z,5.00
2018-08-04T03:48:28.498Z,4.97
2018-08-04T03:50:58.851Z,5.17
2018-08-04T03:53:28.899Z,5.37
2018-08-04T03:56:08.692Z,5.57
2018-08-04T03:58:42.167Z,5.03
2018-08-04T04:01:13.185Z,5.40
2018-08-04T04:03:45.000Z,5.23
2018-08-04T04:06:15.327Z,5.83
2018-08-04T04:08:47.653Z,5.73
2018-08-04T04:11:17.897Z,5.17
2018-08-04T04:13:49.027Z,5.57
2018-08-04T04:16:19.180Z,5.60
2018-08-04T04:18:49.898Z,4.93
2018-08-04T04:21:21.564Z,5.10
2018-08-04T04:23:53.771Z,5.27
2018-08-04T04:26:24.047Z,5.27
2018-08-04T04:28:57.014Z,4.93
2018-08-04T04:31:27.747Z,5.10
2018-08-04T04:33:58.041Z,5.30
2018-08-04T04:36:28.379Z,4.70
2018-08-04T04:39:00.145Z,5.10
2018-08-04T04:41:30.362Z,5.43
2018-08-04T04:44:02.788Z,5.00
2018-08-04T04:46:41.100Z,4.37
2018-08-04T04:49:16.670Z,5.33
2018-08-04T04:51:51.604Z,4.87
2018-08-04T04:54:26.347Z,5.50
2018-08-04T04:57:02.736Z,5.27
2018-08-04T04:59:35.181Z,5.23
2018-08-04T05:02:06.306Z,5.23
2018-08-04T05:04:37.194Z,5.20
2018-08-04T05:07:08.160Z,4.73
2018-08-04T05:09:40.507Z,4.87
2018-08-04T05:12:14.197Z,4.50
2018-08-04T05:14:45.604Z,4.70
2018-08-04T05:17:21.365Z,4.57
2018-08-04T05:19:54.509Z,4.67
2018-08-04T05:22:27.465Z,4.83
2018-08-04T05:24:58.728Z,4.37
2018-08-04T05:27:30.066Z,4.67
2018-08-04T05:30:00.864Z,4.60
2018-08-04T05:32:33.399Z,4.60
2018-08-04T05:35:05.620Z,4.77
2018-08-04T05:37:35.102Z,4.37
2018-08-04T05:40:04.979Z,4.60
2018-08-04T05:42:36.454Z,4.57
2018-08-04T05:45:07.699Z,4.63
2018-08-04T05:47:39.149Z,4.60
2018-08-04T05:50:09.275Z,4.27
2018-08-04T05:52:40.310Z,4.03
2018-08-04T05:55:10.259Z,4.07
2018-08-04T05:57:40.392Z,4.10
2018-08-04T06:00:10.330Z,4.30
2018-08-04T06:02:40.298Z,4.00
2018-08-04T06:05:10.359Z,4.13
2018-08-04T06:07:40.501Z,4.40
2018-08-04T06:10:10.447Z,4.70
2018-08-04T06:12:40.633Z,4.73
2018-08-04T06:15:12.955Z,4.00
2018-08-04T06:17:43.006Z,4.03
2018-08-04T06:20:20.252Z,4.10
2018-08-04T06:22:50.146Z,4.20
2018-08-04T06:25:20.809Z,4.53
2018-08-04T06:27:50.752Z,4.77
2018-08-04T06:30:20.716Z,3.87
2018-08-04T06:32:51.511Z,3.80
2018-08-04T06:35:22.451Z,4.60
2018-08-04T06:38:20.365Z,4.17
2018-08-04T06:41:23.713Z,4.87
2018-08-04T06:47:47.763Z,4.63
2018-08-04T06:50:30.703Z,4.20
2018-08-04T06:53:19.004Z,4.70
2018-08-04T06:56:16.632Z,4.13
2018-08-04T07:05:05.557Z,4.17
2018-08-04T07:14:32.368Z,4.40
2018-08-04T07:20:37.450Z,4.10
2018-08-04T07:30:25.403Z,4.70
2018-08-04T07:36:03.751Z,4.97
2018-08-04T07:38:35.079Z,5.37
2018-08-04T07:41:08.182Z,5.17
2018-08-04T07:43:46.018Z,5.30
2018-08-04T07:46:18.145Z,5.37
2018-08-04T07:48:48.739Z,5.00
2018-08-04T07:51:20.002Z,5.33
2018-08-04T07:53:50.159Z,4.50
2018-08-04T07:56:20.340Z,5.07
2018-08-04T07:58:51.301Z,5.37
2018-08-04T08:01:21.982Z,5.60
2018-08-04T08:03:52.694Z,5.97
2018-08-04T08:06:30.108Z,5.47
2018-08-04T08:09:01.828Z,4.70
2018-08-04T08:11:33.131Z,5.23
2018-08-04T08:14:03.945Z,5.23
2018-08-04T08:16:34.349Z,4.90
2018-08-04T08:19:04.384Z,4.90
2018-08-04T08:21:35.121Z,4.70
2018-08-04T08:24:05.119Z,5.33
2018-08-04T08:26:38.642Z,5.37
2018-08-04T08:29:09.107Z,4.83
2018-08-04T08:31:39.065Z,4.70
2018-08-04T08:34:09.271Z,5.33
2018-08-04T09:29:29.928Z,4.20
2018-08-04T09:32:00.114Z,4.10
2018-08-04T09:34:30.065Z,3.90
2018-08-04T09:36:59.949Z,3.87
2018-08-04T09:39:29.916Z,4.13
2018-08-04T09:42:01.485Z,4.07
2018-08-04T09:44:31.500Z,3.60
2018-08-04T09:47:02.285Z,3.73
2018-08-04T09:49:32.272Z,3.60
2018-08-04T09:52:04.727Z,3.77
2018-08-04T09:54:36.539Z,3.80
2018-08-04T09:57:07.788Z,3.70
2018-08-04T09:59:38.654Z,3.63
2018-08-04T10:02:13.368Z,4.50
2018-08-04T10:04:45.037Z,3.93
2018-08-04T10:07:20.038Z,3.57
2018-08-04T10:09:51.321Z,3.70
2018-08-04T10:12:22.513Z,3.70
2018-08-04T10:14:54.419Z,3.90
2018-08-04T10:17:25.779Z,3.53
2018-08-04T10:19:57.378Z,3.80
2018-08-04T10:22:28.779Z,3.83
2018-08-04T10:24:58.955Z,3.73
2018-08-04T10:27:30.064Z,3.67
2018-08-04T10:30:01.975Z,3.40
2018-08-04T10:32:33.256Z,4.03
2018-08-04T10:35:16.732Z,3.83
2018-08-04T10:37:49.170Z,3.87
2018-08-04T10:40:28.549Z,3.65
2018-08-04T10:43:15.299Z,3.40
2018-08-04T10:45:49.200Z,3.37
2018-08-04T10:48:20.551Z,3.27
2018-08-04T10:50:53.151Z,3.83
2018-08-04T10:53:25.706Z,3.30
2018-08-04T10:55:56.772Z,3.33
2018-08-04T11:02:13.340Z,3.30
2018-08-04T11:07:58.491Z,3.07
2018-08-04T11:10:39.416Z,3.20
2018-08-04T11:13:10.196Z,3.30
2018-08-04T11:15:40.236Z,3.70
2018-08-04T11:18:10.489Z,3.80
2018-08-04T11:20:40.368Z,3.03
2018-08-04T11:23:10.529Z,3.33
2018-08-04T11:25:43.595Z,3.20
2018-08-04T11:28:14.372Z,2.90
2018-08-04T11:30:48.071Z,3.00
2018-08-04T11:33:19.156Z,3.10
2018-08-04T11:35:49.825Z,2.87
2018-08-04T11:38:19.815Z,2.90
2018-08-04T11:40:50.440Z,3.03
2018-08-04T11:43:23.319Z,2.70
2018-08-04T11:45:56.176Z,2.77
2018-08-04T11:48:41.228Z,2.53
2018-08-04T11:51:18.716Z,2.87
2018-08-04T11:53:48.828Z,2.63
2018-08-04T11:56:24.900Z,2.80
2018-08-04T11:58:54.825Z,2.60
2018-08-04T12:01:26.569Z,2.57
2018-08-04T12:04:16.520Z,2.90
2018-08-04T12:06:55.394Z,2.53
2018-08-04T12:09:27.964Z,2.50
2018-08-04T12:11:59.315Z,2.90
2018-08-04T12:14:29.228Z,2.63
2018-08-04T12:58:15.008Z,2.33
2018-08-04T13:00:44.785Z,2.43
2018-08-04T13:03:20.596Z,2.43
2018-08-04T13:05:50.887Z,2.60
2018-08-04T13:08:22.817Z,2.30
2018-08-04T13:10:56.234Z,2.13
2018-08-04T13:13:28.180Z,2.27
2018-08-04T13:16:33.022Z,3.20
2018-08-04T14:10:04.472Z,2.30
2018-08-04T14:12:45.960Z,2.00
2018-08-04T14:15:28.397Z,2.60
2018-08-04T14:18:15.059Z,2.43
2018-08-04T14:24:09.868Z,2.10
2018-08-04T14:26:53.498Z,2.27
2018-08-04T14:29:47.614Z,2.17
2018-08-04T14:33:53.516Z,2.17
2018-08-04T14:49:08.118Z,2.47
2018-08-04T14:52:04.807Z,2.23
2018-08-04T14:54:46.057Z,2.17
2018-08-04T14:57:23.173Z,1.87
2018-08-04T15:00:09.214Z,2.10
2018-08-04T15:02:51.639Z,1.97
2018-08-04T15:05:33.521Z,2.03
2018-08-04T15:08:13.413Z,2.13
2018-08-04T15:13:31.314Z,2.10
2018-08-04T15:16:04.771Z,1.97
2018-08-04T15:18:37.434Z,2.63
2018-08-04T15:21:11.160Z,2.00
2018-08-04T15:23:45.136Z,2.20
2018-08-04T15:26:18.797Z,1.80
2018-08-04T15:28:49.636Z,1.90
2018-08-04T15:31:21.177Z,1.73
2018-08-04T15:33:52.652Z,1.80
2018-08-04T15:36:27.489Z,1.70
2018-08-04T15:38:58.473Z,2.07
2018-08-04T15:41:31.169Z,1.97
2018-08-04T15:44:02.252Z,1.93
2018-08-04T15:46:34.443Z,1.90
2018-08-04T15:49:06.175Z,1.77
2018-08-04T15:51:38.921Z,1.60
2018-08-04T15:54:08.935Z,2.00
2018-08-04T15:56:40.037Z,1.70
2018-08-04T15:59:10.046Z,1.90
2018-08-04T16:01:41.044Z,1.83
2018-08-04T16:04:12.104Z,2.00
2018-08-04T16:06:44.326Z,2.20
2018-08-04T16:09:16.825Z,1.73
2018-08-04T16:11:47.880Z,1.80
2018-08-04T16:14:18.985Z,1.70
2018-08-04T16:16:48.838Z,1.70
2018-08-04T16:19:19.646Z,1.90
2018-08-04T16:21:51.469Z,1.50
2018-08-04T16:24:21.475Z,2.00
2018-08-04T16:26:52.693Z,1.90
2018-08-04T16:29:23.241Z,1.70
2018-08-04T16:31:54.218Z,1.70
2018-08-04T16:34:27.892Z,1.77
2018-08-04T16:36:58.855Z,1.90
2018-08-04T16:39:28.274Z,1.83
2018-08-04T16:41:58.310Z,1.60
2018-08-04T16:44:28.323Z,1.70
2018-08-04T16:46:59.232Z,1.97
2018-08-04T16:49:29.429Z,2.13
2018-08-04T16:52:00.358Z,1.77
2018-08-04T16:54:32.074Z,1.73
2018-08-04T16:57:03.355Z,1.80
2018-08-04T16:59:34.024Z,1.90
2018-08-04T17:02:06.731Z,2.20
2018-08-04T17:04:36.689Z,1.83
2018-08-04T17:07:06.738Z,1.90
2018-08-04T17:09:37.480Z,1.87
2018-08-04T17:12:08.560Z,1.70
2018-08-04T17:14:39.460Z,1.63
2018-08-04T17:17:14.026Z,2.00
2018-08-04T17:19:44.552Z,2.03
2018-08-04T17:22:17.102Z,1.70
2018-08-04T17:24:47.372Z,1.80
2018-08-04T17:27:18.306Z,2.03
2018-08-04T17:29:49.186Z,2.00
2018-08-04T17:32:20.063Z,2.27
2018-08-04T17:34:50.013Z,2.10
2018-08-04T17:37:20.037Z,1.93
2018-08-04T17:39:57.841Z,2.20
2018-08-04T17:42:39.973Z,1.87
2018-08-04T17:45:10.154Z,2.07
2018-08-04T17:47:41.415Z,1.90
2018-08-04T17:50:37.325Z,2.40
2018-08-04T17:53:14.032Z,2.03
2018-08-04T17:55:46.736Z,1.83
2018-08-04T17:58:19.096Z,2.03
2018-08-04T18:00:50.342Z,1.90
2018-08-04T18:03:22.361Z,1.90
2018-08-04T18:05:51.797Z,2.07
2018-08-04T18:08:21.597Z,1.93
2018-08-04T18:10:51.327Z,2.07
2018-08-04T18:13:21.198Z,1.80
2018-08-04T18:15:51.517Z,1.70
2018-08-04T18:18:21.460Z,1.90
2018-08-04T18:20:51.558Z,2.00
2018-08-04T18:23:21.308Z,1.70
2018-08-04T18:25:51.878Z,2.00
2018-08-04T18:28:21.912Z,1.83
2018-08-04T18:30:52.786Z,1.90
2018-08-04T18:33:23.533Z,1.77
2018-08-04T18:35:53.456Z,2.00
2018-08-04T18:38:24.809Z,1.70
2018-08-04T18:40:55.141Z,1.80
2018-08-04T18:43:25.110Z,1.83
2018-08-04T18:45:54.895Z,1.90
2018-08-04T18:48:24.751Z,1.80
2018-08-04T18:50:56.080Z,2.27
2018-08-04T18:53:27.247Z,1.90
2018-08-04T18:55:56.985Z,2.13
2018-08-04T18:58:26.718Z,1.97
2018-08-04T19:00:56.487Z,1.90
2018-08-04T19:03:26.496Z,1.70
2018-08-04T19:05:56.228Z,2.00
2018-08-04T19:08:25.903Z,1.80
2018-08-04T19:10:56.007Z,2.00
2018-08-04T19:13:25.873Z,1.97
2018-08-04T19:15:55.775Z,1.67
2018-08-04T19:18:25.584Z,1.77
2018-08-04T19:20:55.509Z,1.87
2018-08-04T19:23:25.340Z,1.87
2018-08-04T19:25:54.540Z,2.10
2018-08-04T19:28:24.250Z,2.30
2018-08-04T19:30:54.026Z,2.00
2018-08-04T19:33:23.885Z,2.37
2018-08-04T19:35:53.193Z,1.90
2018-08-04T19:38:22.841Z,2.53
2018-08-04T19:40:52.632Z,2.47
2018-08-04T19:43:22.442Z,2.50
2018-08-04T19:45:52.391Z,2.40
2018-08-04T19:48:22.260Z,2.90
2018-08-04T19:50:52.002Z,2.37
2018-08-04T19:53:21.821Z,2.57
2018-08-04T19:55:51.860Z,3.13
2018-08-04T19:58:21.758Z,2.73
2018-08-04T20:00:51.526Z,2.70
2018-08-04T20:03:21.118Z,2.53
2018-08-04T20:05:51.051Z,2.40
2018-08-04T20:08:20.905Z,2.30
2018-08-04T20:10:51.678Z,2.30
2018-08-04T20:13:21.402Z,2.67
2018-08-04T20:15:51.395Z,2.50
2018-08-04T20:18:21.836Z,2.83
2018-08-04T20:20:51.715Z,2.67
2018-08-04T20:23:21.542Z,2.50
2018-08-04T20:25:51.424Z,2.63
2018-08-04T20:28:21.604Z,2.80
2018-08-04T20:30:51.413Z,2.83
2018-08-04T20:33:21.426Z,2.77
2018-08-04T20:35:51.182Z,2.90
2018-08-04T20:38:21.211Z,2.50
2018-08-04T20:40:51.177Z,2.63
2018-08-04T20:43:20.983Z,2.97
2018-08-04T20:45:50.984Z,2.93
2018-08-04T20:48:20.769Z,3.20
2018-08-04T20:50:50.133Z,2.57
2018-08-04T20:53:19.912Z,3.00
2018-08-04T20:55:49.703Z,3.20
2018-08-04T20:58:19.769Z,3.07
2018-08-04T21:01:01.302Z,2.90
2018-08-04T21:03:31.210Z,2.60
2018-08-04T21:06:01.374Z,2.80
2018-08-04T21:08:31.226Z,3.10
2018-08-04T21:11:01.139Z,3.03
2018-08-04T21:13:30.977Z,2.70
2018-08-04T21:16:01.887Z,2.80
2018-08-04T21:18:31.811Z,2.63
2018-08-04T21:21:01.734Z,3.00
2018-08-04T21:23:31.526Z,3.23
2018-08-04T21:26:01.421Z,2.93
2018-08-04T21:28:31.698Z,2.73
2018-08-04T21:31:01.656Z,3.10
2018-08-04T21:33:31.752Z,3.33
2018-08-04T21:36:01.658Z,3.17
2018-08-04T21:38:31.560Z,3.37
2018-08-04T21:41:01.466Z,3.43
2018-08-04T21:43:31.375Z,3.13
2018-08-04T21:46:01.170Z,3.00
2018-08-04T21:48:31.033Z,2.90
2018-08-04T21:51:00.856Z,3.30
2018-08-04T21:53:30.782Z,2.87
2018-08-04T21:56:00.742Z,2.80
2018-08-04T21:58:30.684Z,3.20
2018-08-04T22:01:05.809Z,3.00
2018-08-04T22:03:36.417Z,2.80
2018-08-04T22:06:06.492Z,3.17
2018-08-04T22:08:47.211Z,3.00
2018-08-04T22:11:17.208Z,2.60
2018-08-04T22:13:47.883Z,2.97
2018-08-04T22:16:17.709Z,3.20
2018-08-04T22:18:47.644Z,2.80
2018-08-04T22:21:17.675Z,2.80
2018-08-04T22:23:48.061Z,2.60
2018-08-04T22:26:17.926Z,2.50
2018-08-04T22:28:47.764Z,2.60
2018-08-04T22:31:17.879Z,2.50
2018-08-04T22:33:47.711Z,2.53
2018-08-04T22:36:17.953Z,2.53
2018-08-04T22:38:47.699Z,2.57
2018-08-04T22:41:17.388Z,2.77
2018-08-04T22:43:47.028Z,2.50
2018-08-04T22:46:17.492Z,2.40
2018-08-04T22:48:48.542Z,2.40
2018-08-04T22:51:23.534Z,2.33
2018-08-04T22:53:53.280Z,2.43
2018-08-04T22:56:23.198Z,2.70
2018-08-04T22:58:52.868Z,2.87
2018-08-04T23:01:23.175Z,2.50
2018-08-04T23:03:53.037Z,2.80
2018-08-04T23:06:22.829Z,2.87
2018-08-04T23:08:52.627Z,2.80
2018-08-04T23:11:22.428Z,3.20
2018-08-04T23:13:52.451Z,2.93
2018-08-04T23:16:22.367Z,2.83
2018-08-04T23:18:53.053Z,3.00
2018-08-04T23:21:22.903Z,3.33
2018-08-04T23:23:52.680Z,3.20
2018-08-04T23:26:22.782Z,3.20
2018-08-04T23:28:52.609Z,3.37
2018-08-04T23:31:22.543Z,3.00
2018-08-04T23:33:52.457Z,3.37
2018-08-04T23:36:22.659Z,3.27
2018-08-04T23:38:52.468Z,3.50
2018-08-04T23:41:22.782Z,3.20
2018-08-04T23:43:52.510Z,3.13
2018-08-04T23:46:22.633Z,3.17
2018-08-04T23:48:52.500Z,3.27
2018-08-04T23:51:22.603Z,3.13
2018-08-04T23:53:52.530Z,3.20
2018-08-04T23:56:22.625Z,3.10
2018-08-04T23:58:52.744Z,3.17
